Time;durP1;ratioP1;P1;durP2;ratioP2;P2;SDS_P1;SDS_P2;PMS_P1;PMS_P2;Temp;Humidity;BMP_temperature;BMP_pressure;BME280_temperature;BME280_humidity;BME280_pressure;Samples;Min_cycle;Max_cycle;Signal;HPM_P1;HPM_P2
2023/06/04 00:02:22;;;;;;;1.63;1.53;;;12.20;99.90;;;;;;4871298;29;20208;-67
2023/06/04 00:04:49;;;;;;;1.43;1.33;;;12.20;99.90;;;;;;4870595;29;20229;-67
2023/06/04 00:07:16;;;;;;;1.30;1.20;;;12.20;99.90;;;;;;4890033;29;20188;-67
2023/06/04 00:09:46;;;;;;;1.90;1.30;;;12.10;99.90;;;;;;4883490;29;20299;-67
2023/06/04 00:12:16;;;;;;;2.27;1.47;;;12.10;99.90;;;;;;4882069;29;20691;-67
2023/06/04 00:14:43;;;;;;;1.47;1.10;;;12.20;99.90;;;;;;4866134;29;20198;-67
2023/06/04 00:17:10;;;;;;;3.90;1.47;;;12.10;99.90;;;;;;4889841;29;20228;-67
2023/06/04 00:19:40;;;;;;;1.57;1.47;;;12.00;99.90;;;;;;4878942;29;20229;-67
2023/06/04 00:22:08;;;;;;;1.40;1.30;;;12.00;99.90;;;;;;4882454;29;20197;-67
2023/06/04 00:24:39;;;;;;;1.50;1.37;;;12.00;99.90;;;;;;4882299;29;20197;-67
2023/06/04 00:27:10;;;;;;;2.50;1.30;;;12.00;99.90;;;;;;4888639;29;20253;-65
2023/06/04 00:29:37;;;;;;;1.40;1.30;;;12.10;99.90;;;;;;4881174;29;20720;-65
2023/06/04 00:32:05;;;;;;;2.73;1.40;;;12.00;99.90;;;;;;4872868;29;20554;-67
2023/06/04 00:34:32;;;;;;;3.37;1.40;;;12.00;99.90;;;;;;4868961;29;20288;-64
2023/06/04 00:37:01;;;;;;;1.53;1.33;;;11.90;99.90;;;;;;4864642;29;20655;-66
2023/06/04 00:39:29;;;;;;;2.73;1.30;;;12.00;99.90;;;;;;4889001;29;20735;-65
2023/06/04 00:41:56;;;;;;;1.40;0.93;;;11.90;99.90;;;;;;4881934;29;20718;-66
2023/06/04 00:44:25;;;;;;;2.43;1.63;;;11.90;99.90;;;;;;4882904;29;20205;-64
2023/06/04 00:46:53;;;;;;;2.20;1.30;;;11.80;99.90;;;;;;4888319;29;20204;-65
2023/06/04 00:49:20;;;;;;;1.97;1.30;;;11.80;99.90;;;;;;4867638;29;20213;-65
2023/06/04 00:51:49;;;;;;;2.20;1.43;;;11.80;99.90;;;;;;4888515;29;20667;-65
2023/06/04 00:54:17;;;;;;;2.30;1.60;;;11.80;99.90;;;;;;4884627;29;20692;-65
2023/06/04 00:56:45;;;;;;;1.30;1.20;;;11.80;99.90;;;;;;4883554;29;20219;-65
2023/06/04 00:59:12;;;;;;;1.23;1.00;;;11.70;99.90;;;;;;4882753;29;20667;-65
2023/06/04 01:02:15;;;;;;;1.30;1.17;;;11.70;99.90;;;;;;4862532;29;20233;-65
2023/06/04 01:04:45;;;;;;;2.33;1.13;;;11.70;99.90;;;;;;4882708;29;20200;-65
2023/06/04 01:07:15;;;;;;;1.77;1.00;;;11.70;99.90;;;;;;4880565;29;20224;-65
2023/06/04 01:09:44;;;;;;;0.90;0.90;;;11.70;99.90;;;;;;4886075;29;20266;-65
2023/06/04 01:12:12;;;;;;;1.10;1.00;;;11.70;99.90;;;;;;4892108;29;20763;-65
2023/06/04 01:14:39;;;;;;;2.53;1.73;;;11.70;99.90;;;;;;4873796;29;20433;-65
2023/06/04 01:17:18;;;;;;;1.83;1.40;;;11.60;99.90;;;;;;4861738;29;20205;-66
2023/06/04 01:20:08;;;;;;;1.23;1.10;;;11.50;99.90;;;;;;4876571;29;20193;-66
2023/06/04 01:22:56;;;;;;;1.10;1.00;;;11.50;99.90;;;;;;4891102;29;20197;-65
2023/06/04 01:25:43;;;;;;;2.40;1.30;;;11.40;99.90;;;;;;4870271;29;20225;-65
2023/06/04 01:28:12;;;;;;;1.50;1.37;;;11.40;99.90;;;;;;4870326;29;20227;-67
2023/06/04 01:30:45;;;;;;;1.43;1.00;;;11.20;99.90;;;;;;4861643;29;20289;-66
2023/06/04 01:33:14;;;;;;;1.30;1.07;;;11.00;99.90;;;;;;4868672;29;20340;-65
2023/06/04 01:35:41;;;;;;;1.10;1.07;;;10.40;99.90;;;;;;4874116;29;20197;-65
2023/06/04 01:38:09;;;;;;;1.90;1.43;;;10.00;99.90;;;;;;4865712;29;20638;-64
2023/06/04 01:40:36;;;;;;;1.77;1.50;;;9.70;99.90;;;;;;4872905;29;20735;-65
2023/06/04 01:43:04;;;;;;;2.40;1.50;;;9.80;99.90;;;;;;4888324;29;20272;-66
2023/06/04 01:45:31;;;;;;;2.17;1.37;;;10.00;99.90;;;;;;4884563;29;20365;-67
2023/06/04 01:48:01;;;;;;;1.43;1.30;;;10.10;99.90;;;;;;4864888;29;20194;-67
2023/06/04 01:50:30;;;;;;;1.37;1.17;;;10.20;99.90;;;;;;4874493;29;20217;-67
2023/06/04 01:52:57;;;;;;;1.17;1.10;;;10.30;99.90;;;;;;4876584;29;20204;-66
2023/06/04 01:55:25;;;;;;;3.67;1.33;;;10.40;99.90;;;;;;4885199;29;20212;-67
2023/06/04 01:57:53;;;;;;;1.13;1.00;;;10.40;99.90;;;;;;4887445;29;20265;-66
2023/06/04 02:00:20;;;;;;;1.40;1.20;;;10.40;99.90;;;;;;4871296;29;20373;-67
2023/06/04 02:02:48;;;;;;;1.00;1.00;;;10.50;99.90;;;;;;4886186;29;20220;-68
2023/06/04 02:05:15;;;;;;;1.77;1.13;;;10.50;99.90;;;;;;4873173;29;20530;-67
2023/06/04 02:07:44;;;;;;;1.20;1.10;;;10.50;99.90;;;;;;4864800;29;20205;-64
2023/06/04 02:10:13;;;;;;;2.17;1.50;;;10.60;99.90;;;;;;4868106;29;20216;-67
2023/06/04 02:12:53;;;;;;;1.50;1.40;;;10.50;99.90;;;;;;4866271;29;20775;-65
2023/06/04 02:15:20;;;;;;;2.27;1.60;;;10.50;99.90;;;;;;4874486;29;20564;-65
2023/06/04 02:17:47;;;;;;;1.03;1.00;;;10.40;99.90;;;;;;4869466;29;20202;-65
2023/06/04 02:20:14;;;;;;;1.83;1.70;;;10.40;99.90;;;;;;4863002;29;20202;-65
2023/06/04 02:22:42;;;;;;;1.20;1.10;;;10.30;99.90;;;;;;4857028;29;20654;-65
2023/06/04 02:25:09;;;;;;;3.53;1.10;;;10.10;99.90;;;;;;4863127;29;20215;-67
2023/06/04 02:27:36;;;;;;;0.90;0.90;;;10.00;99.90;;;;;;4871109;29;20201;-66
2023/06/04 02:30:05;;;;;;;1.43;1.23;;;10.00;99.90;;;;;;4887913;29;20381;-65
2023/06/04 02:32:33;;;;;;;1.40;1.30;;;10.10;99.90;;;;;;4864262;29;20214;-65
2023/06/04 02:35:01;;;;;;;2.03;1.30;;;10.10;99.90;;;;;;4868341;29;20220;-65
2023/06/04 02:37:27;;;;;;;1.00;1.00;;;10.10;99.90;;;;;;4871768;29;20209;-65
2023/06/04 02:39:55;;;;;;;0.80;0.80;;;10.10;99.90;;;;;;4871514;29;20668;-68
2023/06/04 02:42:22;;;;;;;0.93;0.93;;;10.10;99.90;;;;;;4847965;29;20926;-66
2023/06/04 02:44:49;;;;;;;5.43;1.17;;;10.10;99.90;;;;;;4869947;29;20567;-66
2023/06/04 02:47:19;;;;;;;1.53;1.33;;;10.00;99.90;;;;;;4865629;29;20213;-58
2023/06/04 02:49:46;;;;;;;1.30;1.20;;;10.00;99.90;;;;;;4852693;29;20210;-58
2023/06/04 02:52:13;;;;;;;1.40;1.03;;;10.10;99.90;;;;;;4866191;29;20557;-58
2023/06/04 02:54:40;;;;;;;2.53;1.37;;;10.00;99.90;;;;;;4872020;29;20335;-58
2023/06/04 02:57:08;;;;;;;1.13;1.03;;;9.50;99.90;;;;;;4857934;29;20198;-58
2023/06/04 02:59:36;;;;;;;5.47;1.50;;;9.00;99.90;;;;;;4869000;29;20201;-58
2023/06/04 03:02:04;;;;;;;1.33;1.23;;;8.90;99.90;;;;;;4864364;29;20604;-58
2023/06/04 03:04:34;;;;;;;2.03;1.10;;;9.00;99.90;;;;;;4869535;29;20591;-58
2023/06/04 03:07:02;;;;;;;1.03;1.00;;;9.00;99.90;;;;;;4883040;29;20799;-58
2023/06/04 03:09:30;;;;;;;2.77;1.10;;;9.20;99.90;;;;;;4856711;29;20226;-57
2023/06/04 03:12:03;;;;;;;1.77;1.30;;;9.20;99.90;;;;;;4868762;29;20620;-56
2023/06/04 03:14:32;;;;;;;1.67;1.40;;;9.30;99.90;;;;;;4863685;29;20232;-55
2023/06/04 03:17:07;;;;;;;1.47;1.20;;;9.40;99.90;;;;;;4884397;29;20201;-56
2023/06/04 03:19:40;;;;;;;1.30;1.10;;;9.50;99.90;;;;;;4875033;29;20209;-56
2023/06/04 03:22:09;;;;;;;1.10;1.00;;;9.50;99.90;;;;;;4870890;29;20717;-57
2023/06/04 03:24:40;;;;;;;1.33;1.23;;;9.60;99.90;;;;;;4864430;29;20221;-58
2023/06/04 03:27:09;;;;;;;1.37;1.27;;;9.70;99.90;;;;;;4864032;29;20201;-57
2023/06/04 03:29:39;;;;;;;1.37;0.83;;;9.70;99.90;;;;;;4887012;29;20738;-58
2023/06/04 03:32:07;;;;;;;1.17;1.07;;;9.90;99.90;;;;;;4873291;29;20205;-57
2023/06/04 03:34:36;;;;;;;1.27;1.17;;;10.20;99.90;;;;;;4853512;29;20651;-58
2023/06/04 03:37:03;;;;;;;1.03;1.03;;;10.40;99.90;;;;;;4870130;29;20194;-57
2023/06/04 03:39:31;;;;;;;1.77;1.67;;;10.50;99.90;;;;;;4858690;29;20844;-57
2023/06/04 03:42:01;;;;;;;1.63;1.53;;;9.60;99.90;;;;;;4879274;29;22200;-58
2023/06/04 03:44:29;;;;;;;3.57;1.97;;;9.40;99.90;;;;;;4873955;29;20277;-57
2023/06/04 03:46:56;;;;;;;2.13;1.67;;;9.20;99.90;;;;;;4870565;29;20272;-57
2023/06/04 03:49:23;;;;;;;7.33;3.60;;;9.30;99.90;;;;;;4872426;29;20204;-57
2023/06/04 03:51:50;;;;;;;1.20;1.10;;;9.80;99.90;;;;;;4869852;29;20216;-58
2023/06/04 03:54:19;;;;;;;6.60;3.07;;;10.40;99.90;;;;;;4862078;29;20208;-57
2023/06/04 03:56:48;;;;;;;6.37;2.73;;;11.00;99.90;;;;;;4871136;29;20206;-60
2023/06/04 03:59:16;;;;;;;21.33;4.93;;;11.70;99.90;;;;;;4855206;29;20232;-58
2023/06/04 04:01:43;;;;;;;5.07;2.70;;;12.40;99.90;;;;;;4866735;29;20727;-56
2023/06/04 04:04:10;;;;;;;1.97;1.50;;;12.70;99.90;;;;;;4874345;29;20533;-56
2023/06/04 04:06:38;;;;;;;6.00;1.93;;;12.60;99.90;;;;;;4872248;29;20834;-57
2023/06/04 04:09:06;;;;;;;1.63;1.30;;;12.60;99.90;;;;;;4872595;29;20243;-57
2023/06/04 04:11:35;;;;;;;1.50;1.30;;;12.50;99.90;;;;;;4865919;29;20276;-57
2023/06/04 04:14:02;;;;;;;1.97;1.43;;;12.20;99.90;;;;;;4866577;29;20762;-57
2023/06/04 04:16:30;;;;;;;2.80;1.80;;;12.10;99.90;;;;;;4866805;29;20210;-57
2023/06/04 04:18:57;;;;;;;1.80;1.20;;;12.70;99.90;;;;;;4889887;29;20223;-57
2023/06/04 04:21:25;;;;;;;1.87;1.50;;;13.30;99.90;;;;;;4859837;29;20295;-57
2023/06/04 04:23:52;;;;;;;1.60;1.50;;;14.20;99.90;;;;;;4878287;29;20197;-58
2023/06/04 04:26:19;;;;;;;2.67;1.55;;;14.80;99.90;;;;;;4864354;29;20205;-57
2023/06/04 04:28:52;;;;;;;3.03;1.63;;;15.10;99.90;;;;;;4866501;29;20201;-58
2023/06/04 04:31:22;;;;;;;9.90;2.33;;;15.60;99.90;;;;;;4880810;29;20236;-57
2023/06/04 04:33:51;;;;;;;52.25;3.25;;;16.00;99.90;;;;;;4881092;29;20481;-58
2023/06/04 04:36:18;;;;;;;2.85;1.52;;;16.00;99.90;;;;;;4870044;29;20611;-57
2023/06/04 04:38:53;;;;;;;1.30;1.20;;;16.10;99.90;;;;;;4866317;29;20189;-58
2023/06/04 04:41:25;;;;;;;1.60;1.00;;;16.30;99.90;;;;;;4863187;29;20292;-58
2023/06/04 04:43:54;;;;;;;1.90;1.10;;;16.70;99.90;;;;;;4886707;29;20196;-59
2023/06/04 04:46:26;;;;;;;1.27;1.17;;;17.10;99.90;;;;;;4869786;29;20218;-58
2023/06/04 04:48:53;;;;;;;2.03;1.02;;;17.70;99.90;;;;;;4874279;29;20739;-59
2023/06/04 04:51:21;;;;;;;2.85;1.88;;;18.00;99.90;;;;;;4885597;29;20578;-58
2023/06/04 04:53:48;;;;;;;2.35;1.67;;;18.60;99.90;;;;;;4869379;29;20198;-58
2023/06/04 04:56:15;;;;;;;3.20;1.35;;;19.00;99.90;;;;;;4876170;29;20589;-59
2023/06/04 04:58:47;;;;;;;2.72;1.55;;;19.00;99.90;;;;;;4890343;29;20201;-60
2023/06/04 05:01:14;;;;;;;2.08;1.42;;;19.80;99.90;;;;;;4885449;29;20214;-59
2023/06/04 05:03:42;;;;;;;7.95;3.42;;;20.00;99.90;;;;;;4871697;29;20201;-59
2023/06/04 05:06:12;;;;;;;2.78;1.70;;;20.50;99.90;;;;;;4873644;29;20667;-58
2023/06/04 05:08:39;;;;;;;2.70;1.65;;;20.30;99.90;;;;;;4868457;29;20229;-61
2023/06/04 05:11:07;;;;;;;2.22;1.55;;;20.80;99.90;;;;;;4865720;29;20751;-58
2023/06/04 05:13:36;;;;;;;5.78;1.60;;;21.20;99.90;;;;;;4868595;29;20343;-60
2023/06/04 05:16:06;;;;;;;2.75;2.28;;;21.60;99.90;;;;;;4874230;29;20209;-59
2023/06/04 05:18:44;;;;;;;2.47;1.55;;;21.70;99.90;;;;;;4876596;29;20223;-59
2023/06/04 05:21:16;;;;;;;3.15;1.67;;;22.00;99.90;;;;;;4890212;29;20260;-60
2023/06/04 05:23:52;;;;;;;1.20;1.10;;;22.80;99.90;;;;;;4887955;29;20192;-60
2023/06/04 05:26:25;;;;;;;1.88;1.10;;;23.10;99.90;;;;;;4888174;29;20201;-59
2023/06/04 05:28:54;;;;;;;2.72;1.23;;;22.70;99.90;;;;;;4872620;29;20201;-60
2023/06/04 05:31:29;;;;;;;1.80;1.50;;;22.50;99.90;;;;;;4871345;29;20216;-59
2023/06/04 05:34:01;;;;;;;1.98;1.35;;;23.20;99.90;;;;;;4891466;29;20684;-60
2023/06/04 05:36:30;;;;;;;3.53;1.17;;;23.40;99.90;;;;;;4875366;29;20663;-60
2023/06/04 05:39:01;;;;;;;1.23;1.05;;;23.90;99.90;;;;;;4875981;29;20186;-59
2023/06/04 05:41:40;;;;;;;1.27;1.10;;;24.40;99.90;;;;;;4865504;29;20276;-59
2023/06/04 05:44:08;;;;;;;3.80;1.60;;;24.70;99.90;;;;;;4869174;29;20215;-60
2023/06/04 05:46:35;;;;;;;1.77;1.20;;;25.20;99.90;;;;;;4873665;29;20227;-60
2023/06/04 05:49:02;;;;;;;1.60;1.33;;;24.50;99.90;;;;;;4890051;29;20215;-60
2023/06/04 05:51:30;;;;;;;2.30;1.05;;;24.60;99.90;;;;;;4872493;29;20831;-61
2023/06/04 05:53:57;;;;;;;1.42;1.33;;;24.20;99.90;;;;;;4864769;29;20276;-60
2023/06/04 05:56:26;;;;;;;1.23;1.10;;;24.60;99.90;;;;;;4880553;29;20824;-59
2023/06/04 05:58:54;;;;;;;1.23;1.13;;;25.20;99.90;;;;;;4888981;29;20192;-60
2023/06/04 06:01:24;;;;;;;2.08;1.00;;;25.60;99.90;;;;;;4866993;29;20212;-60
2023/06/04 06:03:51;;;;;;;1.40;1.27;;;25.90;99.90;;;;;;4874825;29;20200;-59
2023/06/04 06:06:21;;;;;;;4.20;1.25;;;26.10;99.90;;;;;;4873838;29;20563;-60
2023/06/04 06:08:49;;;;;;;1.90;1.17;;;27.20;99.90;;;;;;4881512;29;20204;-59
2023/06/04 06:11:16;;;;;;;1.17;1.08;;;27.80;99.90;;;;;;4867463;29;20311;-60
2023/06/04 06:13:44;;;;;;;1.05;0.95;;;28.20;99.90;;;;;;4883880;29;20252;-61
2023/06/04 06:16:12;;;;;;;1.30;1.20;;;29.00;99.90;;;;;;4872909;29;20639;-60
2023/06/04 06:18:39;;;;;;;1.33;1.13;;;27.20;99.90;;;;;;4871118;29;20652;-62
2023/06/04 06:21:09;;;;;;;2.50;1.38;;;27.40;99.90;;;;;;4874029;29;20213;-60
2023/06/04 06:23:37;;;;;;;2.00;1.30;;;27.70;99.90;;;;;;4872323;29;20209;-59
2023/06/04 06:26:08;;;;;;;1.65;1.50;;;27.10;99.90;;;;;;4863551;29;20666;-61
2023/06/04 06:28:42;;;;;;;1.30;1.00;;;26.10;99.90;;;;;;4872260;29;20204;-61
2023/06/04 06:31:09;;;;;;;1.58;1.05;;;27.10;99.90;;;;;;4874665;29;20310;-61
2023/06/04 06:33:40;;;;;;;1.33;1.13;;;26.60;99.90;;;;;;4871567;29;20220;-60
2023/06/04 06:36:14;;;;;;;1.83;1.27;;;27.60;99.90;;;;;;4871913;29;20283;-60
2023/06/04 06:38:41;;;;;;;1.35;1.08;;;28.20;99.90;;;;;;4888241;29;20193;-60
2023/06/04 06:41:08;;;;;;;1.65;1.15;;;27.30;99.90;;;;;;4866582;29;20201;-59
2023/06/04 06:43:37;;;;;;;2.72;1.58;;;28.20;99.90;;;;;;4861191;29;20201;-60
2023/06/04 06:46:04;;;;;;;1.58;1.40;;;27.90;99.90;;;;;;4863328;29;20202;-59
2023/06/04 06:48:31;;;;;;;1.40;1.20;;;29.30;99.90;;;;;;4876101;29;20221;-60
2023/06/04 06:50:58;;;;;;;0.95;0.93;;;29.70;99.90;;;;;;4878282;29;20209;-60
2023/06/04 06:53:25;;;;;;;3.15;1.30;;;29.20;98.80;;;;;;4867057;29;20201;-60
2023/06/04 06:55:52;;;;;;;1.17;0.90;;;29.10;99.20;;;;;;4879673;29;20208;-62
2023/06/04 06:58:19;;;;;;;1.58;1.30;;;29.20;98.90;;;;;;4878481;29;20224;-60
2023/06/04 07:00:46;;;;;;;1.38;1.10;;;29.90;99.50;;;;;;4869787;29;20208;-60
2023/06/04 07:03:13;;;;;;;2.45;1.30;;;29.80;98.70;;;;;;4865597;29;20307;-61
2023/06/04 07:05:40;;;;;;;2.08;1.35;;;31.40;98.60;;;;;;4881230;29;20278;-60
2023/06/04 07:08:07;;;;;;;1.25;1.00;;;31.20;96.70;;;;;;4864808;29;20674;-59
2023/06/04 07:10:34;;;;;;;2.78;1.63;;;31.50;96.90;;;;;;4863323;29;20770;-59
2023/06/04 07:13:01;;;;;;;1.08;0.98;;;32.30;97.10;;;;;;4881743;29;20236;-59
2023/06/04 07:15:28;;;;;;;2.53;1.60;;;33.40;96.30;;;;;;4881092;29;20647;-59
2023/06/04 07:17:55;;;;;;;1.00;0.93;;;32.40;96.90;;;;;;4848441;29;20877;-59
2023/06/04 07:20:22;;;;;;;14.43;1.58;;;32.00;95.40;;;;;;4887131;29;20193;-59
2023/06/04 07:22:49;;;;;;;27.27;2.75;;;31.40;95.60;;;;;;4860540;29;20691;-62
2023/06/04 07:25:16;;;;;;;1.35;1.25;;;30.00;94.90;;;;;;4878270;29;20606;-59
2023/06/04 07:27:43;;;;;;;1.50;1.20;;;31.30;95.30;;;;;;4864595;29;20226;-59
2023/06/04 07:30:13;;;;;;;1.98;1.10;;;29.30;93.30;;;;;;4876482;29;20206;-62
2023/06/04 07:32:40;;;;;;;1.40;1.30;;;30.40;95.40;;;;;;4867348;29;20194;-61
2023/06/04 07:35:08;;;;;;;1.58;1.30;;;31.90;94.60;;;;;;4881044;29;20193;-61
2023/06/04 07:37:35;;;;;;;1.65;1.20;;;31.00;93.90;;;;;;4866142;29;20277;-59
2023/06/04 07:40:03;;;;;;;1.67;1.38;;;31.60;93.20;;;;;;4884906;29;20208;-61
2023/06/04 07:42:33;;;;;;;1.40;1.20;;;32.20;95.00;;;;;;4860760;29;20654;-61
2023/06/04 07:45:01;;;;;;;2.05;1.33;;;32.70;93.30;;;;;;4863446;29;20200;-59
2023/06/04 07:47:28;;;;;;;1.27;1.13;;;32.00;93.40;;;;;;4878338;29;20197;-59
2023/06/04 07:49:56;;;;;;;1.25;1.02;;;32.90;93.40;;;;;;4886213;29;20284;-59
2023/06/04 07:52:30;;;;;;;1.80;1.15;;;33.00;93.20;;;;;;4862784;29;20241;-61
2023/06/04 07:54:57;;;;;;;1.00;1.00;;;33.70;93.20;;;;;;4864041;29;20197;-59
2023/06/04 07:57:25;;;;;;;1.95;1.42;;;34.20;93.00;;;;;;4874949;29;20208;-58
2023/06/04 07:59:52;;;;;;;1.13;1.00;;;33.80;91.00;;;;;;4866460;29;20219;-58
2023/06/04 08:02:19;;;;;;;1.77;1.52;;;33.30;92.00;;;;;;4870436;29;20301;-59
2023/06/04 08:04:47;;;;;;;1.75;1.50;;;33.10;92.30;;;;;;4872584;29;20200;-59
2023/06/04 08:07:14;;;;;;;9.18;1.90;;;34.10;92.40;;;;;;4884889;29;20418;-59
2023/06/04 08:09:41;;;;;;;5.05;1.70;;;34.40;89.10;;;;;;4884468;29;20687;-59
2023/06/04 08:12:08;;;;;;;3.63;1.30;;;33.00;86.70;;;;;;4880963;29;20225;-59
2023/06/04 08:14:37;;;;;;;1.23;1.13;;;32.00;90.60;;;;;;4876938;29;20204;-59
2023/06/04 08:17:04;;;;;;;1.83;1.38;;;32.90;90.70;;;;;;4876849;29;20276;-59
2023/06/04 08:19:31;;;;;;;1.40;1.30;;;32.20;88.80;;;;;;4863231;29;20201;-59
2023/06/04 08:21:58;;;;;;;1.60;1.10;;;32.50;90.70;;;;;;4881968;29;20448;-59
2023/06/04 08:24:25;;;;;;;1.83;1.23;;;31.60;89.90;;;;;;4856513;29;20217;-59
2023/06/04 08:26:52;;;;;;;1.75;1.27;;;34.10;91.30;;;;;;4867015;29;20260;-60
2023/06/04 08:29:19;;;;;;;1.50;1.40;;;35.40;88.20;;;;;;4883807;29;20201;-59
2023/06/04 08:31:46;;;;;;;2.30;1.60;;;36.90;89.70;;;;;;4865765;29;20782;-59
2023/06/04 08:34:13;;;;;;;1.50;1.40;;;35.60;85.40;;;;;;4880348;29;20212;-60
2023/06/04 08:36:40;;;;;;;2.20;1.20;;;33.10;85.70;;;;;;4861055;29;20210;-60
2023/06/04 08:39:09;;;;;;;2.17;1.40;;;33.30;88.20;;;;;;4883029;29;20197;-60
2023/06/04 08:41:44;;;;;;;1.80;1.40;;;33.30;87.00;;;;;;4878126;29;20287;-61
2023/06/04 08:44:12;;;;;;;3.22;1.58;;;31.70;83.10;;;;;;4880450;29;20261;-60
2023/06/04 08:46:40;;;;;;;2.80;1.70;;;31.70;88.10;;;;;;4876718;29;20199;-60
2023/06/04 08:49:08;;;;;;;2.00;1.50;;;31.50;85.10;;;;;;4879384;29;20675;-61
2023/06/04 08:51:40;;;;;;;5.95;1.83;;;30.50;86.10;;;;;;4874953;29;20210;-59
2023/06/04 08:54:08;;;;;;;2.50;1.50;;;31.30;85.80;;;;;;4878081;29;20201;-60
2023/06/04 08:56:37;;;;;;;1.77;1.40;;;32.80;86.00;;;;;;4883864;29;20684;-60
2023/06/04 08:59:08;;;;;;;15.25;2.85;;;32.70;85.10;;;;;;4882104;29;20738;-60
2023/06/04 09:01:38;;;;;;;2.42;1.80;;;32.10;81.30;;;;;;4881419;29;20373;-60
2023/06/04 09:04:07;;;;;;;2.17;1.38;;;32.20;80.70;;;;;;4857629;29;20209;-60
2023/06/04 09:06:40;;;;;;;1.70;1.38;;;31.90;81.50;;;;;;4883108;29;20194;-60
2023/06/04 09:09:10;;;;;;;2.35;1.70;;;31.90;81.10;;;;;;4881209;29;20637;-60
2023/06/04 09:11:53;;;;;;;3.15;1.50;;;32.10;81.60;;;;;;4879681;29;20225;-60
2023/06/04 09:14:20;;;;;;;2.22;1.67;;;32.60;80.80;;;;;;4867526;29;20264;-60
2023/06/04 09:16:49;;;;;;;1.98;1.48;;;32.60;79.40;;;;;;4860810;29;20209;-59
2023/06/04 09:19:17;;;;;;;2.80;1.60;;;33.30;82.50;;;;;;4880917;29;20517;-60
2023/06/04 09:22:00;;;;;;;4.88;2.15;;;32.20;77.20;;;;;;4887588;29;20757;-59
2023/06/04 09:24:47;;;;;;;3.25;1.92;;;30.50;75.40;;;;;;4882943;29;20655;-60
2023/06/04 09:27:15;;;;;;;2.40;1.88;;;30.30;76.80;;;;;;4866164;29;20213;-60
2023/06/04 09:29:53;;;;;;;10.43;2.72;;;29.90;75.60;;;;;;4868160;29;20205;-60
2023/06/04 09:32:29;;;;;;;6.90;1.85;;;30.20;76.50;;;;;;4877736;29;20610;-60
2023/06/04 09:35:15;;;;;;;13.07;1.98;;;28.70;73.70;;;;;;4871950;29;20208;-59
2023/06/04 09:37:51;;;;;;;3.70;1.50;;;28.30;74.90;;;;;;4861907;29;20194;-60
2023/06/04 09:40:18;;;;;;;27.85;2.40;;;29.30;76.80;;;;;;4889146;29;20206;-59
2023/06/04 09:42:53;;;;;;;2.67;1.30;;;29.80;73.80;;;;;;4853336;29;20903;-60
2023/06/04 09:45:31;;;;;;;1.30;1.20;;;30.40;74.30;;;;;;4880740;29;20253;-60
2023/06/04 09:48:00;;;;;;;1.30;1.15;;;28.70;73.30;;;;;;4882516;29;20562;-60
2023/06/04 09:50:33;;;;;;;2.22;1.02;;;28.90;72.80;;;;;;4883076;29;20272;-60
2023/06/04 09:53:02;;;;;;;1.88;1.10;;;29.80;73.50;;;;;;4889624;29;20228;-60
2023/06/04 09:55:29;;;;;;;1.77;1.10;;;29.50;71.70;;;;;;4887631;29;20269;-60
2023/06/04 09:57:58;;;;;;;1.42;1.17;;;30.10;71.40;;;;;;4889082;29;20544;-60
2023/06/04 10:00:26;;;;;;;1.05;0.90;;;30.00;70.20;;;;;;4887338;29;20201;-59
2023/06/04 10:02:58;;;;;;;2.40;1.13;;;29.00;69.30;;;;;;4882339;29;20664;-61
2023/06/04 10:05:27;;;;;;;3.17;1.17;;;29.40;70.30;;;;;;4881097;29;20220;-59
2023/06/04 10:07:56;;;;;;;1.40;1.10;;;30.10;71.50;;;;;;4882805;29;20206;-62
2023/06/04 10:10:27;;;;;;;3.15;1.35;;;29.30;70.00;;;;;;4873505;29;20281;-59
2023/06/04 10:13:02;;;;;;;2.63;1.23;;;28.50;67.50;;;;;;4869996;29;20243;-60
2023/06/04 10:15:32;;;;;;;4.32;1.35;;;28.80;92.10;;;;;;4879103;29;20185;-59
2023/06/04 10:17:59;;;;;;;1.80;1.30;;;28.60;68.00;;;;;;4886858;29;20552;-60
2023/06/04 10:20:27;;;;;;;3.38;1.20;;;29.00;67.70;;;;;;4862610;29;20284;-59
2023/06/04 10:22:55;;;;;;;1.85;1.25;;;29.40;68.10;;;;;;4884374;29;20209;-60
2023/06/04 10:25:22;;;;;;;1.40;0.98;;;29.20;66.90;;;;;;4881780;29;20755;-60
2023/06/04 10:27:51;;;;;;;2.15;1.27;;;29.60;68.60;;;;;;4856353;29;20229;-60
2023/06/04 10:30:18;;;;;;;1.30;1.15;;;31.00;65.40;;;;;;4876582;29;20201;-62
2023/06/04 10:32:46;;;;;;;1.67;1.15;;;29.10;65.30;;;;;;4876529;29;20229;-60
2023/06/04 10:35:15;;;;;;;1.10;1.00;;;28.80;66.80;;;;;;4874338;29;20280;-61
2023/06/04 10:37:42;;;;;;;1.67;1.25;;;29.50;66.70;;;;;;4875125;29;20715;-60
2023/06/04 10:40:09;;;;;;;1.60;1.05;;;29.60;65.60;;;;;;4874286;29;20218;-60
2023/06/04 10:42:42;;;;;;;1.55;1.00;;;30.00;66.70;;;;;;4876436;29;20233;-60
2023/06/04 10:45:10;;;;;;;1.25;1.10;;;29.90;66.30;;;;;;4880632;29;20232;-60
2023/06/04 10:47:40;;;;;;;0.80;0.80;;;30.70;67.70;;;;;;4874879;29;20643;-60
2023/06/04 10:50:12;;;;;;;1.80;1.20;;;31.20;64.90;;;;;;4875298;29;20804;-60
2023/06/04 10:52:51;;;;;;;1.77;0.90;;;30.30;62.20;;;;;;4878881;29;20224;-60
2023/06/04 10:55:18;;;;;;;1.58;1.00;;;29.40;62.60;;;;;;4880366;29;20215;-60
2023/06/04 10:57:56;;;;;;;1.63;1.10;;;29.70;64.60;;;;;;4873092;29;20202;-60
2023/06/04 11:00:35;;;;;;;1.35;1.23;;;30.40;62.90;;;;;;4873578;29;20209;-60
2023/06/04 11:03:03;;;;;;;3.28;1.48;;;29.90;63.10;;;;;;4875926;29;20205;-60
2023/06/04 11:05:38;;;;;;;1.20;1.02;;;30.20;64.50;;;;;;4876631;29;20317;-60
2023/06/04 11:08:06;;;;;;;33.45;3.13;;;29.40;62.70;;;;;;4873298;29;20197;-60
2023/06/04 11:10:41;;;;;;;1.67;1.17;;;29.20;62.60;;;;;;4849113;29;20209;-60
2023/06/04 11:13:08;;;;;;;1.85;1.13;;;29.40;62.50;;;;;;4860986;29;20256;-60
2023/06/04 11:15:42;;;;;;;2.25;1.27;;;29.70;62.30;;;;;;4857096;29;20219;-60
2023/06/04 11:18:20;;;;;;;2.05;1.33;;;27.80;63.90;;;;;;4860932;29;20275;-60
2023/06/04 11:20:49;;;;;;;1.67;1.17;;;28.60;64.30;;;;;;4864988;29;20276;-60
2023/06/04 11:23:17;;;;;;;4.38;1.35;;;28.60;62.50;;;;;;4862079;29;20284;-62
2023/06/04 11:25:45;;;;;;;3.55;1.42;;;28.60;62.60;;;;;;4866404;29;20735;-60
2023/06/04 11:28:21;;;;;;;1.65;1.30;;;30.00;63.40;;;;;;4860468;29;20228;-62
2023/06/04 11:30:58;;;;;;;1.75;1.30;;;29.20;59.30;;;;;;4859060;29;20197;-60
2023/06/04 11:33:26;;;;;;;2.20;1.58;;;29.10;61.20;;;;;;4859983;29;20711;-61
2023/06/04 11:35:53;;;;;;;2.03;1.35;;;29.30;86.80;;;;;;4859239;29;20194;-61
2023/06/04 11:38:20;;;;;;;1.42;1.20;;;28.70;61.70;;;;;;4862599;29;20574;-60
2023/06/04 11:41:01;;;;;;;2.65;1.70;;;28.40;62.40;;;;;;4862364;29;20854;-60
2023/06/04 11:43:29;;;;;;;1.80;1.50;;;27.90;61.10;;;;;;4863119;29;20684;-60
2023/06/04 11:45:56;;;;;;;3.72;1.50;;;28.40;61.80;;;;;;4858249;29;20724;-60
2023/06/04 11:48:23;;;;;;;2.10;1.63;;;28.80;61.00;;;;;;4855398;29;20993;-61
2023/06/04 11:50:51;;;;;;;2.33;1.67;;;28.10;61.70;;;;;;4862579;29;20237;-61
2023/06/04 11:53:18;;;;;;;1.73;1.60;;;28.90;61.40;;;;;;4856085;29;20328;-60
2023/06/04 11:55:45;;;;;;;3.95;1.70;;;29.90;60.80;;;;;;4868677;29;20197;-59
2023/06/04 11:58:13;;;;;;;5.13;1.83;;;31.10;62.20;;;;;;4864771;29;20255;-60
2023/06/04 12:00:40;;;;;;;2.60;1.67;;;31.60;59.50;;;;;;4859917;29;20210;-61
2023/06/04 12:03:07;;;;;;;1.80;1.45;;;32.00;83.70;;;;;;4866543;29;20205;-60
2023/06/04 12:05:35;;;;;;;3.13;2.42;;;30.40;57.90;;;;;;4860533;29;20376;-60
2023/06/04 12:08:10;;;;;;;2.17;1.60;;;29.00;61.00;;;;;;4856395;29;20270;-60
2023/06/04 12:10:42;;;;;;;2.20;1.40;;;28.80;60.40;;;;;;4858480;29;20229;-60
2023/06/04 12:13:11;;;;;;;3.40;1.77;;;28.80;59.00;;;;;;4883709;29;20288;-60
2023/06/04 12:15:38;;;;;;;5.65;1.67;;;28.30;60.00;;;;;;4869386;29;20194;-60
2023/06/04 12:18:09;;;;;;;2.15;1.67;;;27.90;61.20;;;;;;4859044;29;20221;-60
2023/06/04 12:20:43;;;;;;;4.05;1.98;;;27.30;60.80;;;;;;4866470;29;20207;-60
2023/06/04 12:23:20;;;;;;;2.75;1.73;;;26.90;62.70;;;;;;4865790;29;20206;-60
2023/06/04 12:25:53;;;;;;;3.67;1.77;;;27.10;63.30;;;;;;4858028;29;20242;-59
2023/06/04 12:28:20;;;;;;;3.90;1.70;;;26.60;63.80;;;;;;4856530;29;21874;-60
2023/06/04 12:30:47;;;;;;;2.28;1.65;;;26.50;65.50;;;;;;4885017;29;20529;-60
2023/06/04 12:33:15;;;;;;;5.03;1.80;;;27.40;65.40;;;;;;4861078;29;20278;-59
2023/06/04 12:35:42;;;;;;;3.08;2.00;;;27.90;64.30;;;;;;4869028;29;20198;-60
2023/06/04 12:38:09;;;;;;;1.77;1.50;;;27.50;63.30;;;;;;4862270;29;20497;-60
2023/06/04 12:40:36;;;;;;;3.83;1.90;;;26.50;65.10;;;;;;4859497;29;20286;-60
2023/06/04 12:43:05;;;;;;;2.80;1.75;;;25.70;63.10;;;;;;4861032;29;20709;-60
2023/06/04 12:45:32;;;;;;;1.77;1.65;;;25.50;65.30;;;;;;4864986;29;20719;-60
2023/06/04 12:48:00;;;;;;;2.25;1.70;;;25.00;65.10;;;;;;4865973;29;20231;-60
2023/06/04 12:50:27;;;;;;;2.20;1.83;;;25.40;66.10;;;;;;4866191;29;20324;-60
2023/06/04 12:52:54;;;;;;;2.80;1.90;;;25.90;66.00;;;;;;4865274;29;20220;-60
2023/06/04 12:55:21;;;;;;;2.35;2.08;;;26.30;65.00;;;;;;4866929;29;20584;-60
2023/06/04 12:57:48;;;;;;;2.65;1.63;;;24.40;62.70;;;;;;4872080;29;20197;-60
2023/06/04 13:00:16;;;;;;;3.90;2.08;;;25.00;66.30;;;;;;4865347;29;20209;-59